sensor_id;sensor_type;location;lat;lon;timestamp;P1;durP1;ratioP1;P2;durP2;ratioP2
7279;SDS011;3681;52.254;10.532;2022-07-23T00:01:48;11.87;;;6.90;;
7279;SDS011;3681;52.254;10.532;2022-07-23T00:05:38;11.97;;;6.93;;
7279;SDS011;3681;52.254;10.532;2022-07-23T00:09:03;9.80;;;7.23;;
7279;SDS011;3681;52.254;10.532;2022-07-23T00:12:51;13.77;;;7.50;;
7279;SDS011;3681;52.254;10.532;2022-07-23T00:16:14;10.20;;;7.37;;
7279;SDS011;3681;52.254;10.532;2022-07-23T00:19:35;14.63;;;7.80;;
7279;SDS011;3681;52.254;10.532;2022-07-23T00:23:00;16.10;;;7.63;;
7279;SDS011;3681;52.254;10.532;2022-07-23T00:26:30;14.77;;;7.43;;
7279;SDS011;3681;52.254;10.532;2022-07-23T00:29:52;14.13;;;7.80;;
7279;SDS011;3681;52.254;10.532;2022-07-23T00:33:16;17.20;;;7.50;;
7279;SDS011;3681;52.254;10.532;2022-07-23T00:36:42;12.60;;;8.10;;
7279;SDS011;3681;52.254;10.532;2022-07-23T00:40:10;13.30;;;6.43;;
7279;SDS011;3681;52.254;10.532;2022-07-23T00:43:32;11.50;;;7.27;;
7279;SDS011;3681;52.254;10.532;2022-07-23T00:46:57;12.30;;;8.00;;
7279;SDS011;3681;52.254;10.532;2022-07-23T00:50:26;11.97;;;7.10;;
7279;SDS011;3681;52.254;10.532;2022-07-23T00:53:52;16.73;;;7.00;;
7279;SDS011;3681;52.254;10.532;2022-07-23T00:57:14;12.00;;;7.37;;
7279;SDS011;3681;52.254;10.532;2022-07-23T01:00:37;14.73;;;7.90;;
7279;SDS011;3681;52.254;10.532;2022-07-23T01:03:59;13.50;;;7.40;;
7279;SDS011;3681;52.254;10.532;2022-07-23T01:07:27;11.27;;;7.00;;
7279;SDS011;3681;52.254;10.532;2022-07-23T01:10:52;17.07;;;7.93;;
7279;SDS011;3681;52.254;10.532;2022-07-23T01:14:20;14.53;;;7.37;;
7279;SDS011;3681;52.254;10.532;2022-07-23T01:17:41;14.53;;;7.43;;
7279;SDS011;3681;52.254;10.532;2022-07-23T01:21:03;12.13;;;6.83;;
7279;SDS011;3681;52.254;10.532;2022-07-23T01:24:26;12.77;;;6.83;;
7279;SDS011;3681;52.254;10.532;2022-07-23T01:27:59;11.77;;;6.40;;
7279;SDS011;3681;52.254;10.532;2022-07-23T01:31:26;16.17;;;8.00;;
7279;SDS011;3681;52.254;10.532;2022-07-23T01:34:54;7.77;;;6.73;;
7279;SDS011;3681;52.254;10.532;2022-07-23T01:38:20;7.77;;;6.03;;
7279;SDS011;3681;52.254;10.532;2022-07-23T01:41:50;12.60;;;6.90;;
7279;SDS011;3681;52.254;10.532;2022-07-23T01:45:36;21.03;;;7.70;;
7279;SDS011;3681;52.254;10.532;2022-07-23T01:48:59;11.83;;;7.33;;
7279;SDS011;3681;52.254;10.532;2022-07-23T01:52:42;10.00;;;6.63;;
7279;SDS011;3681;52.254;10.532;2022-07-23T01:56:03;14.43;;;7.70;;
7279;SDS011;3681;52.254;10.532;2022-07-23T01:59:27;14.23;;;7.73;;
7279;SDS011;3681;52.254;10.532;2022-07-23T02:02:49;10.60;;;6.97;;
7279;SDS011;3681;52.254;10.532;2022-07-23T02:06:11;11.87;;;6.43;;
7279;SDS011;3681;52.254;10.532;2022-07-23T02:09:32;14.73;;;8.43;;
7279;SDS011;3681;52.254;10.532;2022-07-23T02:12:55;12.93;;;7.63;;
7279;SDS011;3681;52.254;10.532;2022-07-23T02:16:17;14.53;;;7.63;;
7279;SDS011;3681;52.254;10.532;2022-07-23T02:19:39;17.20;;;7.87;;
7279;SDS011;3681;52.254;10.532;2022-07-23T02:23:00;18.57;;;7.87;;
7279;SDS011;3681;52.254;10.532;2022-07-23T02:26:21;14.77;;;7.17;;
7279;SDS011;3681;52.254;10.532;2022-07-23T02:29:45;13.93;;;6.53;;
7279;SDS011;3681;52.254;10.532;2022-07-23T02:33:08;11.07;;;6.93;;
7279;SDS011;3681;52.254;10.532;2022-07-23T02:36:30;14.73;;;7.27;;
7279;SDS011;3681;52.254;10.532;2022-07-23T02:39:52;12.77;;;7.17;;
7279;SDS011;3681;52.254;10.532;2022-07-23T02:43:13;16.43;;;7.30;;
7279;SDS011;3681;52.254;10.532;2022-07-23T02:46:35;19.00;;;7.47;;
7279;SDS011;3681;52.254;10.532;2022-07-23T02:49:58;18.17;;;7.43;;
7279;SDS011;3681;52.254;10.532;2022-07-23T02:53:21;16.30;;;6.97;;
7279;SDS011;3681;52.254;10.532;2022-07-23T02:56:43;15.40;;;7.90;;
7279;SDS011;3681;52.254;10.532;2022-07-23T03:00:05;12.47;;;7.30;;
7279;SDS011;3681;52.254;10.532;2022-07-23T03:03:29;14.77;;;7.23;;
7279;SDS011;3681;52.254;10.532;2022-07-23T03:06:52;14.60;;;7.50;;
7279;SDS011;3681;52.254;10.532;2022-07-23T03:10:13;10.13;;;6.50;;
7279;SDS011;3681;52.254;10.532;2022-07-23T03:13:36;12.23;;;7.03;;
7279;SDS011;3681;52.254;10.532;2022-07-23T03:16:58;12.17;;;7.13;;
7279;SDS011;3681;52.254;10.532;2022-07-23T03:20:20;15.07;;;6.70;;
7279;SDS011;3681;52.254;10.532;2022-07-23T03:23:42;16.57;;;7.63;;
7279;SDS011;3681;52.254;10.532;2022-07-23T03:27:04;13.00;;;6.77;;
7279;SDS011;3681;52.254;10.532;2022-07-23T03:30:25;13.23;;;7.63;;
7279;SDS011;3681;52.254;10.532;2022-07-23T03:33:47;22.50;;;8.73;;
7279;SDS011;3681;52.254;10.532;2022-07-23T03:37:08;17.23;;;8.40;;
7279;SDS011;3681;52.254;10.532;2022-07-23T03:40:31;18.33;;;7.63;;
7279;SDS011;3681;52.254;10.532;2022-07-23T03:43:53;12.37;;;8.03;;
7279;SDS011;3681;52.254;10.532;2022-07-23T03:47:14;13.37;;;8.30;;
7279;SDS011;3681;52.254;10.532;2022-07-23T03:50:37;16.03;;;7.73;;
7279;SDS011;3681;52.254;10.532;2022-07-23T03:53:59;13.27;;;8.07;;
7279;SDS011;3681;52.254;10.532;2022-07-23T03:57:22;13.73;;;7.47;;
7279;SDS011;3681;52.254;10.532;2022-07-23T04:00:45;12.30;;;7.70;;
7279;SDS011;3681;52.254;10.532;2022-07-23T04:04:08;15.57;;;7.57;;
7279;SDS011;3681;52.254;10.532;2022-07-23T04:07:36;18.83;;;7.43;;
7279;SDS011;3681;52.254;10.532;2022-07-23T04:10:58;21.90;;;7.73;;
7279;SDS011;3681;52.254;10.532;2022-07-23T04:14:21;12.70;;;7.33;;
7279;SDS011;3681;52.254;10.532;2022-07-23T04:17:43;16.37;;;7.93;;
7279;SDS011;3681;52.254;10.532;2022-07-23T04:21:05;13.40;;;7.33;;
7279;SDS011;3681;52.254;10.532;2022-07-23T04:24:27;14.43;;;6.97;;
7279;SDS011;3681;52.254;10.532;2022-07-23T04:27:49;23.13;;;7.63;;
7279;SDS011;3681;52.254;10.532;2022-07-23T04:31:12;16.93;;;6.33;;
7279;SDS011;3681;52.254;10.532;2022-07-23T04:34:33;16.30;;;7.60;;
7279;SDS011;3681;52.254;10.532;2022-07-23T04:37:55;13.43;;;7.10;;
7279;SDS011;3681;52.254;10.532;2022-07-23T04:41:17;12.13;;;7.20;;
7279;SDS011;3681;52.254;10.532;2022-07-23T04:44:40;12.50;;;6.77;;
7279;SDS011;3681;52.254;10.532;2022-07-23T04:48:04;8.73;;;5.70;;
7279;SDS011;3681;52.254;10.532;2022-07-23T04:51:25;11.17;;;7.27;;
7279;SDS011;3681;52.254;10.532;2022-07-23T04:54:47;16.50;;;7.43;;
7279;SDS011;3681;52.254;10.532;2022-07-23T04:58:08;10.23;;;6.67;;
7279;SDS011;3681;52.254;10.532;2022-07-23T05:01:31;7.90;;;5.83;;
7279;SDS011;3681;52.254;10.532;2022-07-23T05:04:54;15.40;;;7.33;;
7279;SDS011;3681;52.254;10.532;2022-07-23T05:08:16;17.27;;;8.13;;
7279;SDS011;3681;52.254;10.532;2022-07-23T05:11:47;11.83;;;7.97;;
7279;SDS011;3681;52.254;10.532;2022-07-23T05:15:11;16.23;;;7.67;;
7279;SDS011;3681;52.254;10.532;2022-07-23T05:18:32;20.17;;;8.30;;
7279;SDS011;3681;52.254;10.532;2022-07-23T05:21:55;15.10;;;7.27;;
7279;SDS011;3681;52.254;10.532;2022-07-23T05:25:17;17.03;;;8.70;;
7279;SDS011;3681;52.254;10.532;2022-07-23T05:28:39;19.37;;;8.33;;
7279;SDS011;3681;52.254;10.532;2022-07-23T05:32:07;16.57;;;8.90;;
7279;SDS011;3681;52.254;10.532;2022-07-23T05:35:33;16.00;;;9.03;;
7279;SDS011;3681;52.254;10.532;2022-07-23T05:39:09;16.77;;;8.67;;
7279;SDS011;3681;52.254;10.532;2022-07-23T05:42:30;16.83;;;9.03;;
7279;SDS011;3681;52.254;10.532;2022-07-23T05:45:51;15.90;;;9.07;;
7279;SDS011;3681;52.254;10.532;2022-07-23T05:49:14;17.57;;;10.00;;
7279;SDS011;3681;52.254;10.532;2022-07-23T05:52:52;19.47;;;10.23;;
7279;SDS011;3681;52.254;10.532;2022-07-23T05:56:39;15.30;;;9.20;;
7279;SDS011;3681;52.254;10.532;2022-07-23T06:00:05;14.20;;;9.33;;
7279;SDS011;3681;52.254;10.532;2022-07-23T06:03:32;13.77;;;9.40;;
7279;SDS011;3681;52.254;10.532;2022-07-23T06:06:54;15.80;;;9.83;;
7279;SDS011;3681;52.254;10.532;2022-07-23T06:10:16;13.20;;;8.83;;
7279;SDS011;3681;52.254;10.532;2022-07-23T06:13:39;19.20;;;9.57;;
7279;SDS011;3681;52.254;10.532;2022-07-23T06:17:01;16.00;;;9.17;;
7279;SDS011;3681;52.254;10.532;2022-07-23T06:20:23;19.10;;;9.93;;
7279;SDS011;3681;52.254;10.532;2022-07-23T06:23:44;14.63;;;8.83;;
7279;SDS011;3681;52.254;10.532;2022-07-23T06:27:06;16.77;;;8.93;;
7279;SDS011;3681;52.254;10.532;2022-07-23T06:30:28;14.43;;;8.77;;
7279;SDS011;3681;52.254;10.532;2022-07-23T06:33:50;17.40;;;9.07;;
7279;SDS011;3681;52.254;10.532;2022-07-23T06:37:12;17.13;;;8.07;;
7279;SDS011;3681;52.254;10.532;2022-07-23T06:40:35;12.87;;;7.17;;
7279;SDS011;3681;52.254;10.532;2022-07-23T06:43:57;18.50;;;7.60;;
7279;SDS011;3681;52.254;10.532;2022-07-23T06:47:23;17.10;;;7.87;;
7279;SDS011;3681;52.254;10.532;2022-07-23T06:50:46;10.90;;;8.03;;
7279;SDS011;3681;52.254;10.532;2022-07-23T06:54:07;12.30;;;6.57;;
7279;SDS011;3681;52.254;10.532;2022-07-23T06:57:28;12.17;;;6.90;;
7279;SDS011;3681;52.254;10.532;2022-07-23T07:00:53;18.50;;;7.60;;
7279;SDS011;3681;52.254;10.532;2022-07-23T07:04:18;12.80;;;6.57;;
7279;SDS011;3681;52.254;10.532;2022-07-23T07:07:39;14.07;;;6.87;;
7279;SDS011;3681;52.254;10.532;2022-07-23T07:11:00;18.40;;;6.20;;
7279;SDS011;3681;52.254;10.532;2022-07-23T07:14:22;11.67;;;5.63;;
7279;SDS011;3681;52.254;10.532;2022-07-23T07:17:43;13.50;;;6.13;;
7279;SDS011;3681;52.254;10.532;2022-07-23T07:21:06;9.47;;;4.73;;
7279;SDS011;3681;52.254;10.532;2022-07-23T07:24:27;10.07;;;4.43;;
7279;SDS011;3681;52.254;10.532;2022-07-23T07:27:55;10.40;;;4.60;;
7279;SDS011;3681;52.254;10.532;2022-07-23T07:31:18;7.50;;;3.80;;
7279;SDS011;3681;52.254;10.532;2022-07-23T07:34:39;10.47;;;5.40;;
7279;SDS011;3681;52.254;10.532;2022-07-23T07:38:02;7.90;;;4.73;;
7279;SDS011;3681;52.254;10.532;2022-07-23T07:41:23;10.57;;;5.03;;
7279;SDS011;3681;52.254;10.532;2022-07-23T07:44:46;8.93;;;4.57;;
7279;SDS011;3681;52.254;10.532;2022-07-23T07:48:07;10.33;;;4.87;;
7279;SDS011;3681;52.254;10.532;2022-07-23T07:51:29;7.60;;;4.30;;
7279;SDS011;3681;52.254;10.532;2022-07-23T07:54:52;11.43;;;5.00;;
7279;SDS011;3681;52.254;10.532;2022-07-23T07:58:13;8.33;;;3.90;;
7279;SDS011;3681;52.254;10.532;2022-07-23T08:01:34;7.43;;;3.47;;
7279;SDS011;3681;52.254;10.532;2022-07-23T08:04:55;5.93;;;3.13;;
7279;SDS011;3681;52.254;10.532;2022-07-23T08:08:17;6.17;;;3.00;;
7279;SDS011;3681;52.254;10.532;2022-07-23T08:11:40;9.83;;;3.80;;
7279;SDS011;3681;52.254;10.532;2022-07-23T08:15:04;10.87;;;2.93;;
7279;SDS011;3681;52.254;10.532;2022-07-23T08:18:33;7.70;;;2.73;;
7279;SDS011;3681;52.254;10.532;2022-07-23T08:21:54;6.43;;;2.00;;
7279;SDS011;3681;52.254;10.532;2022-07-23T08:25:15;5.77;;;2.03;;
7279;SDS011;3681;52.254;10.532;2022-07-23T08:28:41;5.80;;;2.40;;
7279;SDS011;3681;52.254;10.532;2022-07-23T08:32:02;3.97;;;1.67;;
7279;SDS011;3681;52.254;10.532;2022-07-23T08:35:45;6.63;;;1.70;;
7279;SDS011;3681;52.254;10.532;2022-07-23T08:39:10;6.33;;;2.10;;
7279;SDS011;3681;52.254;10.532;2022-07-23T08:42:31;9.60;;;1.50;;
7279;SDS011;3681;52.254;10.532;2022-07-23T08:45:58;3.77;;;2.00;;
7279;SDS011;3681;52.254;10.532;2022-07-23T08:49:21;7.10;;;2.27;;
7279;SDS011;3681;52.254;10.532;2022-07-23T08:52:44;4.43;;;1.80;;
7279;SDS011;3681;52.254;10.532;2022-07-23T08:56:05;4.33;;;1.93;;
7279;SDS011;3681;52.254;10.532;2022-07-23T08:59:28;5.87;;;2.40;;
7279;SDS011;3681;52.254;10.532;2022-07-23T09:02:53;5.00;;;1.80;;
7279;SDS011;3681;52.254;10.532;2022-07-23T09:06:15;10.80;;;1.97;;
7279;SDS011;3681;52.254;10.532;2022-07-23T09:09:36;5.73;;;2.10;;
7279;SDS011;3681;52.254;10.532;2022-07-23T09:12:58;7.93;;;1.90;;
7279;SDS011;3681;52.254;10.532;2022-07-23T09:16:20;6.87;;;1.87;;
7279;SDS011;3681;52.254;10.532;2022-07-23T09:19:51;6.20;;;1.33;;
7279;SDS011;3681;52.254;10.532;2022-07-23T09:23:12;3.53;;;1.17;;
7279;SDS011;3681;52.254;10.532;2022-07-23T09:26:34;5.00;;;1.60;;
7279;SDS011;3681;52.254;10.532;2022-07-23T09:29:58;3.53;;;1.57;;
7279;SDS011;3681;52.254;10.532;2022-07-23T09:33:19;3.20;;;1.73;;
7279;SDS011;3681;52.254;10.532;2022-07-23T09:36:52;4.45;;;1.55;;
7279;SDS011;3681;52.254;10.532;2022-07-23T09:40:14;3.10;;;1.40;;
7279;SDS011;3681;52.254;10.532;2022-07-23T09:43:37;2.55;;;1.67;;
7279;SDS011;3681;52.254;10.532;2022-07-23T09:46:59;1.97;;;1.53;;
7279;SDS011;3681;52.254;10.532;2022-07-23T09:50:21;4.70;;;1.80;;
7279;SDS011;3681;52.254;10.532;2022-07-23T09:53:47;5.03;;;1.98;;
7279;SDS011;3681;52.254;10.532;2022-07-23T09:57:09;2.20;;;1.63;;
7279;SDS011;3681;52.254;10.532;2022-07-23T10:00:34;5.30;;;1.98;;
7279;SDS011;3681;52.254;10.532;2022-07-23T10:03:57;3.67;;;2.08;;
7279;SDS011;3681;52.254;10.532;2022-07-23T10:07:54;7.13;;;1.65;;
7279;SDS011;3681;52.254;10.532;2022-07-23T10:11:37;4.60;;;1.73;;
7279;SDS011;3681;52.254;10.532;2022-07-23T10:15:17;1.80;;;1.52;;
7279;SDS011;3681;52.254;10.532;2022-07-23T10:18:39;5.57;;;2.28;;
7279;SDS011;3681;52.254;10.532;2022-07-23T10:22:06;9.98;;;2.05;;
7279;SDS011;3681;52.254;10.532;2022-07-23T10:25:30;5.88;;;2.40;;
7279;SDS011;3681;52.254;10.532;2022-07-23T10:29:05;1.40;;;1.30;;
7279;SDS011;3681;52.254;10.532;2022-07-23T10:32:37;2.20;;;2.05;;
7279;SDS011;3681;52.254;10.532;2022-07-23T10:36:08;4.03;;;1.83;;
7279;SDS011;3681;52.254;10.532;2022-07-23T10:39:34;2.15;;;1.15;;
7279;SDS011;3681;52.254;10.532;2022-07-23T10:42:58;3.92;;;1.20;;
7279;SDS011;3681;52.254;10.532;2022-07-23T10:46:22;5.15;;;1.73;;
7279;SDS011;3681;52.254;10.532;2022-07-23T10:49:54;3.63;;;1.40;;
7279;SDS011;3681;52.254;10.532;2022-07-23T10:53:53;1.88;;;1.38;;
7279;SDS011;3681;52.254;10.532;2022-07-23T10:57:16;3.85;;;1.30;;
7279;SDS011;3681;52.254;10.532;2022-07-23T11:00:39;2.13;;;1.25;;
7279;SDS011;3681;52.254;10.532;2022-07-23T11:04:02;3.47;;;1.20;;
7279;SDS011;3681;52.254;10.532;2022-07-23T11:07:27;1.08;;;0.98;;
7279;SDS011;3681;52.254;10.532;2022-07-23T11:10:50;0.95;;;0.85;;
7279;SDS011;3681;52.254;10.532;2022-07-23T11:14:15;3.92;;;1.45;;
7279;SDS011;3681;52.254;10.532;2022-07-23T11:17:36;1.45;;;0.68;;
7279;SDS011;3681;52.254;10.532;2022-07-23T11:21:11;2.65;;;0.80;;
7279;SDS011;3681;52.254;10.532;2022-07-23T11:25:04;1.10;;;0.68;;
7279;SDS011;3681;52.254;10.532;2022-07-23T11:28:27;2.55;;;0.88;;
7279;SDS011;3681;52.254;10.532;2022-07-23T11:31:53;2.80;;;0.68;;
7279;SDS011;3681;52.254;10.532;2022-07-23T11:35:25;2.92;;;0.68;;
7279;SDS011;3681;52.254;10.532;2022-07-23T11:38:50;1.42;;;0.80;;
7279;SDS011;3681;52.254;10.532;2022-07-23T11:42:16;1.45;;;1.35;;
7279;SDS011;3681;52.254;10.532;2022-07-23T11:45:39;6.07;;;1.08;;
7279;SDS011;3681;52.254;10.532;2022-07-23T11:49:01;1.98;;;0.90;;
7279;SDS011;3681;52.254;10.532;2022-07-23T11:52:24;3.78;;;0.68;;
7279;SDS011;3681;52.254;10.532;2022-07-23T11:55:48;1.50;;;0.88;;
7279;SDS011;3681;52.254;10.532;2022-07-23T11:59:09;1.48;;;0.50;;
7279;SDS011;3681;52.254;10.532;2022-07-23T12:02:31;1.27;;;0.52;;
7279;SDS011;3681;52.254;10.532;2022-07-23T12:05:55;3.03;;;0.82;;
7279;SDS011;3681;52.254;10.532;2022-07-23T12:09:18;4.00;;;0.68;;
7279;SDS011;3681;52.254;10.532;2022-07-23T12:12:43;4.47;;;0.70;;
7279;SDS011;3681;52.254;10.532;2022-07-23T12:16:05;3.75;;;1.15;;
7279;SDS011;3681;52.254;10.532;2022-07-23T12:19:27;3.75;;;1.10;;
7279;SDS011;3681;52.254;10.532;2022-07-23T12:22:49;1.95;;;0.77;;
7279;SDS011;3681;52.254;10.532;2022-07-23T12:26:12;3.38;;;0.95;;
7279;SDS011;3681;52.254;10.532;2022-07-23T12:29:35;2.65;;;0.57;;
7279;SDS011;3681;52.254;10.532;2022-07-23T12:32:57;2.47;;;0.70;;
7279;SDS011;3681;52.254;10.532;2022-07-23T12:36:18;1.15;;;0.85;;
7279;SDS011;3681;52.254;10.532;2022-07-23T12:39:40;2.60;;;0.70;;
7279;SDS011;3681;52.254;10.532;2022-07-23T12:43:02;3.92;;;0.80;;
7279;SDS011;3681;52.254;10.532;2022-07-23T12:46:27;1.63;;;0.60;;
7279;SDS011;3681;52.254;10.532;2022-07-23T12:49:48;1.05;;;0.60;;
7279;SDS011;3681;52.254;10.532;2022-07-23T12:53:11;2.00;;;0.75;;
7279;SDS011;3681;52.254;10.532;2022-07-23T12:56:44;2.17;;;0.77;;
7279;SDS011;3681;52.254;10.532;2022-07-23T13:00:08;1.80;;;0.68;;
7279;SDS011;3681;52.254;10.532;2022-07-23T13:03:33;2.78;;;0.40;;
7279;SDS011;3681;52.254;10.532;2022-07-23T13:06:58;6.38;;;0.73;;
7279;SDS011;3681;52.254;10.532;2022-07-23T13:10:24;1.27;;;0.80;;
7279;SDS011;3681;52.254;10.532;2022-07-23T13:13:45;3.58;;;0.75;;
7279;SDS011;3681;52.254;10.532;2022-07-23T13:17:06;4.53;;;0.90;;
7279;SDS011;3681;52.254;10.532;2022-07-23T13:20:30;3.50;;;0.70;;
7279;SDS011;3681;52.254;10.532;2022-07-23T13:23:53;1.50;;;0.60;;
7279;SDS011;3681;52.254;10.532;2022-07-23T13:27:15;1.50;;;0.70;;
7279;SDS011;3681;52.254;10.532;2022-07-23T13:30:39;0.93;;;0.60;;
7279;SDS011;3681;52.254;10.532;2022-07-23T13:34:01;2.28;;;0.60;;
7279;SDS011;3681;52.254;10.532;2022-07-23T13:37:25;0.57;;;0.50;;
7279;SDS011;3681;52.254;10.532;2022-07-23T13:40:47;0.70;;;0.57;;
7279;SDS011;3681;52.254;10.532;2022-07-23T13:44:10;2.38;;;0.65;;
7279;SDS011;3681;52.254;10.532;2022-07-23T13:47:32;4.65;;;0.70;;
7279;SDS011;3681;52.254;10.532;2022-07-23T13:50:55;2.03;;;0.35;;
7279;SDS011;3681;52.254;10.532;2022-07-23T13:54:18;1.80;;;0.45;;
7279;SDS011;3681;52.254;10.532;2022-07-23T13:57:40;2.88;;;0.57;;
7279;SDS011;3681;52.254;10.532;2022-07-23T14:01:03;0.77;;;0.38;;
7279;SDS011;3681;52.254;10.532;2022-07-23T14:04:24;2.70;;;0.40;;
7279;SDS011;3681;52.254;10.532;2022-07-23T14:07:46;3.83;;;0.80;;
7279;SDS011;3681;52.254;10.532;2022-07-23T14:11:11;1.55;;;0.35;;
7279;SDS011;3681;52.254;10.532;2022-07-23T14:14:32;0.82;;;0.32;;
7279;SDS011;3681;52.254;10.532;2022-07-23T14:17:56;5.25;;;0.60;;
7279;SDS011;3681;52.254;10.532;2022-07-23T14:21:18;0.80;;;0.40;;
7279;SDS011;3681;52.254;10.532;2022-07-23T14:24:39;2.25;;;0.40;;
7279;SDS011;3681;52.254;10.532;2022-07-23T14:28:02;1.35;;;0.30;;
7279;SDS011;3681;52.254;10.532;2022-07-23T14:31:24;1.25;;;0.57;;
7279;SDS011;3681;52.254;10.532;2022-07-23T14:34:46;3.67;;;0.50;;
7279;SDS011;3681;52.254;10.532;2022-07-23T14:38:08;0.77;;;0.50;;
7279;SDS011;3681;52.254;10.532;2022-07-23T14:41:33;4.05;;;0.32;;
7279;SDS011;3681;52.254;10.532;2022-07-23T14:44:55;1.75;;;0.50;;
7279;SDS011;3681;52.254;10.532;2022-07-23T14:48:16;2.50;;;0.60;;
7279;SDS011;3681;52.254;10.532;2022-07-23T14:51:40;0.63;;;0.40;;
7279;SDS011;3681;52.254;10.532;2022-07-23T14:55:02;1.17;;;0.30;;
7279;SDS011;3681;52.254;10.532;2022-07-23T14:58:24;1.17;;;0.30;;
7279;SDS011;3681;52.254;10.532;2022-07-23T15:01:47;0.57;;;0.30;;
7279;SDS011;3681;52.254;10.532;2022-07-23T15:05:09;1.48;;;0.30;;
7279;SDS011;3681;52.254;10.532;2022-07-23T15:08:31;1.52;;;0.55;;
7279;SDS011;3681;52.254;10.532;2022-07-23T15:11:53;0.30;;;0.30;;
7279;SDS011;3681;52.254;10.532;2022-07-23T15:15:16;0.50;;;0.40;;
7279;SDS011;3681;52.254;10.532;2022-07-23T15:18:41;1.10;;;0.35;;
7279;SDS011;3681;52.254;10.532;2022-07-23T15:22:03;0.60;;;0.30;;
7279;SDS011;3681;52.254;10.532;2022-07-23T15:25:28;2.13;;;0.55;;
7279;SDS011;3681;52.254;10.532;2022-07-23T15:28:49;3.63;;;0.45;;
7279;SDS011;3681;52.254;10.532;2022-07-23T15:32:10;0.70;;;0.40;;
7279;SDS011;3681;52.254;10.532;2022-07-23T15:35:34;2.40;;;0.40;;
7279;SDS011;3681;52.254;10.532;2022-07-23T15:38:56;5.53;;;0.68;;
7279;SDS011;3681;52.254;10.532;2022-07-23T15:42:18;3.90;;;0.60;;
7279;SDS011;3681;52.254;10.532;2022-07-23T15:45:39;2.40;;;0.30;;
7279;SDS011;3681;52.254;10.532;2022-07-23T15:49:01;0.75;;;0.43;;
7279;SDS011;3681;52.254;10.532;2022-07-23T15:52:26;0.77;;;0.30;;
7279;SDS011;3681;52.254;10.532;2022-07-23T15:55:48;2.42;;;0.30;;
7279;SDS011;3681;52.254;10.532;2022-07-23T15:59:10;3.95;;;0.63;;
7279;SDS011;3681;52.254;10.532;2022-07-23T16:02:31;1.27;;;0.40;;
7279;SDS011;3681;52.254;10.532;2022-07-23T16:05:53;1.35;;;0.50;;
7279;SDS011;3681;52.254;10.532;2022-07-23T16:09:16;1.55;;;0.50;;
7279;SDS011;3681;52.254;10.532;2022-07-23T16:12:38;1.02;;;0.30;;
7279;SDS011;3681;52.254;10.532;2022-07-23T16:16:00;9.48;;;0.55;;
7279;SDS011;3681;52.254;10.532;2022-07-23T16:19:22;2.70;;;0.35;;
7279;SDS011;3681;52.254;10.532;2022-07-23T16:22:45;1.20;;;0.30;;
7279;SDS011;3681;52.254;10.532;2022-07-23T16:26:08;1.38;;;0.20;;
7279;SDS011;3681;52.254;10.532;2022-07-23T16:29:29;0.90;;;0.20;;
7279;SDS011;3681;52.254;10.532;2022-07-23T16:32:51;1.17;;;0.50;;
7279;SDS011;3681;52.254;10.532;2022-07-23T16:36:12;2.10;;;0.47;;
7279;SDS011;3681;52.254;10.532;2022-07-23T16:39:34;1.02;;;0.70;;
7279;SDS011;3681;52.254;10.532;2022-07-23T16:42:56;0.90;;;0.80;;
7279;SDS011;3681;52.254;10.532;2022-07-23T16:46:17;0.77;;;0.43;;
7279;SDS011;3681;52.254;10.532;2022-07-23T16:49:39;0.80;;;0.22;;
7279;SDS011;3681;52.254;10.532;2022-07-23T16:53:00;0.73;;;0.30;;
7279;SDS011;3681;52.254;10.532;2022-07-23T16:56:21;1.48;;;0.22;;
7279;SDS011;3681;52.254;10.532;2022-07-23T16:59:44;2.10;;;0.30;;
7279;SDS011;3681;52.254;10.532;2022-07-23T17:03:06;1.10;;;0.30;;
7279;SDS011;3681;52.254;10.532;2022-07-23T17:06:27;1.38;;;0.55;;
7279;SDS011;3681;52.254;10.532;2022-07-23T17:09:48;2.22;;;0.40;;
7279;SDS011;3681;52.254;10.532;2022-07-23T17:13:10;1.00;;;0.40;;
7279;SDS011;3681;52.254;10.532;2022-07-23T17:16:33;1.73;;;0.85;;
7279;SDS011;3681;52.254;10.532;2022-07-23T17:19:55;1.92;;;0.40;;
7279;SDS011;3681;52.254;10.532;2022-07-23T17:23:17;0.40;;;0.40;;
7279;SDS011;3681;52.254;10.532;2022-07-23T17:26:39;0.52;;;0.40;;
7279;SDS011;3681;52.254;10.532;2022-07-23T17:30:03;0.47;;;0.25;;
7279;SDS011;3681;52.254;10.532;2022-07-23T17:33:26;2.17;;;0.30;;
7279;SDS011;3681;52.254;10.532;2022-07-23T17:36:47;4.13;;;0.52;;
7279;SDS011;3681;52.254;10.532;2022-07-23T17:40:10;0.88;;;0.60;;
7279;SDS011;3681;52.254;10.532;2022-07-23T17:43:32;2.08;;;0.40;;
7279;SDS011;3681;52.254;10.532;2022-07-23T17:46:53;3.20;;;0.30;;
7279;SDS011;3681;52.254;10.532;2022-07-23T17:50:16;0.68;;;0.50;;
7279;SDS011;3681;52.254;10.532;2022-07-23T17:53:38;0.55;;;0.50;;
7279;SDS011;3681;52.254;10.532;2022-07-23T17:56:59;3.47;;;0.82;;
7279;SDS011;3681;52.254;10.532;2022-07-23T18:00:27;3.15;;;0.68;;
7279;SDS011;3681;52.254;10.532;2022-07-23T18:03:52;0.75;;;0.40;;
7279;SDS011;3681;52.254;10.532;2022-07-23T18:07:15;2.17;;;0.40;;
7279;SDS011;3681;52.254;10.532;2022-07-23T18:10:37;0.55;;;0.20;;
7279;SDS011;3681;52.254;10.532;2022-07-23T18:13:58;0.55;;;0.55;;
7279;SDS011;3681;52.254;10.532;2022-07-23T18:17:19;1.02;;;0.60;;
7279;SDS011;3681;52.254;10.532;2022-07-23T18:20:42;3.80;;;0.90;;
7279;SDS011;3681;52.254;10.532;2022-07-23T18:24:05;1.95;;;0.80;;
7279;SDS011;3681;52.254;10.532;2022-07-23T18:27:27;1.75;;;0.70;;
7279;SDS011;3681;52.254;10.532;2022-07-23T18:30:50;2.95;;;0.70;;
7279;SDS011;3681;52.254;10.532;2022-07-23T18:34:12;1.55;;;1.20;;
7279;SDS011;3681;52.254;10.532;2022-07-23T18:37:34;1.92;;;0.82;;
7279;SDS011;3681;52.254;10.532;2022-07-23T18:40:58;3.55;;;0.80;;
7279;SDS011;3681;52.254;10.532;2022-07-23T18:44:20;1.20;;;0.88;;
7279;SDS011;3681;52.254;10.532;2022-07-23T18:47:41;2.20;;;1.50;;
7279;SDS011;3681;52.254;10.532;2022-07-23T18:51:02;2.22;;;1.35;;
7279;SDS011;3681;52.254;10.532;2022-07-23T18:54:24;4.20;;;1.30;;
7279;SDS011;3681;52.254;10.532;2022-07-23T18:57:46;3.35;;;1.00;;
7279;SDS011;3681;52.254;10.532;2022-07-23T19:01:08;1.30;;;1.10;;
7279;SDS011;3681;52.254;10.532;2022-07-23T19:04:31;1.98;;;1.77;;
7279;SDS011;3681;52.254;10.532;2022-07-23T19:07:53;2.85;;;1.70;;
7279;SDS011;3681;52.254;10.532;2022-07-23T19:11:15;8.48;;;1.58;;
7279;SDS011;3681;52.254;10.532;2022-07-23T19:14:38;2.80;;;1.40;;
7279;SDS011;3681;52.254;10.532;2022-07-23T19:18:00;2.33;;;0.50;;
7279;SDS011;3681;52.254;10.532;2022-07-23T19:21:23;4.07;;;1.27;;
7279;SDS011;3681;52.254;10.532;2022-07-23T19:24:44;5.30;;;0.77;;
7279;SDS011;3681;52.254;10.532;2022-07-23T19:28:05;1.75;;;0.82;;
7279;SDS011;3681;52.254;10.532;2022-07-23T19:31:28;2.88;;;0.57;;
7279;SDS011;3681;52.254;10.532;2022-07-23T19:34:50;3.08;;;0.82;;
7279;SDS011;3681;52.254;10.532;2022-07-23T19:38:12;0.75;;;0.40;;
7279;SDS011;3681;52.254;10.532;2022-07-23T19:41:33;0.75;;;0.63;;
7279;SDS011;3681;52.254;10.532;2022-07-23T19:44:55;2.20;;;1.08;;
7279;SDS011;3681;52.254;10.532;2022-07-23T19:48:17;1.65;;;1.02;;
7279;SDS011;3681;52.254;10.532;2022-07-23T19:51:39;6.43;;;1.25;;
7279;SDS011;3681;52.254;10.532;2022-07-23T19:55:00;4.53;;;1.35;;
7279;SDS011;3681;52.254;10.532;2022-07-23T19:58:22;4.70;;;1.38;;
7279;SDS011;3681;52.254;10.532;2022-07-23T20:01:43;3.58;;;0.70;;
7279;SDS011;3681;52.254;10.532;2022-07-23T20:05:06;3.08;;;0.50;;
7279;SDS011;3681;52.254;10.532;2022-07-23T20:08:29;0.90;;;0.57;;
7279;SDS011;3681;52.254;10.532;2022-07-23T20:11:51;0.95;;;0.50;;
7279;SDS011;3681;52.254;10.532;2022-07-23T20:15:12;2.58;;;0.52;;
7279;SDS011;3681;52.254;10.532;2022-07-23T20:18:34;3.50;;;1.05;;
7279;SDS011;3681;52.254;10.532;2022-07-23T20:21:56;2.00;;;1.10;;
7279;SDS011;3681;52.254;10.532;2022-07-23T20:25:18;0.88;;;0.88;;
7279;SDS011;3681;52.254;10.532;2022-07-23T20:28:40;2.67;;;1.00;;
7279;SDS011;3681;52.254;10.532;2022-07-23T20:32:01;2.38;;;1.50;;
7279;SDS011;3681;52.254;10.532;2022-07-23T20:35:22;5.53;;;1.23;;
7279;SDS011;3681;52.254;10.532;2022-07-23T20:38:45;4.28;;;2.33;;